createdAt,value
2023-05-02T00:00:55.324Z,14.10
2023-05-02T00:03:23.627Z,14.10
2023-05-02T00:05:51.645Z,14.20
2023-05-02T00:08:19.343Z,14.20
2023-05-02T00:10:47.124Z,14.10
2023-05-02T00:13:14.885Z,14.10
2023-05-02T00:15:42.672Z,14.10
2023-05-02T00:18:10.617Z,14.10
2023-05-02T00:20:41.214Z,14.10
2023-05-02T00:23:08.877Z,14.10
2023-05-02T00:25:36.604Z,14.20
2023-05-02T00:28:04.291Z,14.10
2023-05-02T00:30:32.006Z,14.10
2023-05-02T00:32:59.817Z,14.20
2023-05-02T00:35:27.534Z,14.20
2023-05-02T00:37:55.369Z,14.30
2023-05-02T00:40:22.990Z,14.30
2023-05-02T00:42:50.838Z,14.30
2023-05-02T00:45:18.699Z,14.30
2023-05-02T00:47:46.686Z,14.40
2023-05-02T00:50:14.581Z,14.40
2023-05-02T00:52:42.713Z,14.40
2023-05-02T00:55:10.507Z,14.40
2023-05-02T00:57:38.584Z,14.50
2023-05-02T01:00:06.951Z,14.50
2023-05-02T01:02:49.025Z,14.60
2023-05-02T01:05:30.898Z,14.50
2023-05-02T01:08:15.217Z,14.60
2023-05-02T01:10:53.221Z,14.50
2023-05-02T01:13:32.683Z,14.60
2023-05-02T01:16:03.322Z,14.50
2023-05-02T01:18:35.860Z,14.50
2023-05-02T01:21:11.690Z,14.50
2023-05-02T01:24:05.399Z,14.50
2023-05-02T01:26:59.688Z,14.50
2023-05-02T01:29:29.725Z,14.50
2023-05-02T01:31:59.662Z,14.50
2023-05-02T01:34:28.881Z,14.40
2023-05-02T01:36:59.371Z,14.40
2023-05-02T01:39:27.713Z,14.40
2023-05-02T01:41:58.664Z,14.40
2023-05-02T01:44:29.426Z,14.30
2023-05-02T01:46:59.681Z,14.40
2023-05-02T01:49:29.685Z,14.40
2023-05-02T01:52:04.003Z,14.50
2023-05-02T01:54:33.890Z,14.50
2023-05-02T01:57:05.266Z,14.50
2023-05-02T01:59:34.484Z,14.60
2023-05-02T02:02:04.833Z,14.60
2023-05-02T02:04:35.187Z,14.60
2023-05-02T02:07:06.512Z,14.60
2023-05-02T02:09:34.471Z,14.60
2023-05-02T02:12:26.917Z,14.60
2023-05-02T02:15:09.134Z,14.60
2023-05-02T02:17:50.564Z,14.60
2023-05-02T02:20:19.631Z,14.60
2023-05-02T02:22:49.907Z,14.70
2023-05-02T02:25:18.655Z,14.70
2023-05-02T02:27:47.861Z,14.60
2023-05-02T02:30:16.766Z,14.60
2023-05-02T02:32:44.556Z,14.60
2023-05-02T02:35:12.499Z,14.50
2023-05-02T02:38:02.916Z,14.60
2023-05-02T02:40:34.842Z,14.50
2023-05-02T02:43:21.355Z,14.50
2023-05-02T02:45:52.191Z,14.50
2023-05-02T02:48:57.064Z,14.50
2023-05-02T02:51:53.629Z,14.50
2023-05-02T02:54:32.124Z,14.50
2023-05-02T02:57:26.978Z,14.40
2023-05-02T03:00:12.121Z,14.40
2023-05-02T03:02:42.929Z,14.40
2023-05-02T03:05:11.956Z,14.40
2023-05-02T03:07:39.897Z,14.40
2023-05-02T03:10:08.544Z,14.50
2023-05-02T03:12:40.130Z,14.40
2023-05-02T03:15:15.207Z,14.40
2023-05-02T03:17:44.647Z,14.40
2023-05-02T03:20:12.347Z,14.40
2023-05-02T03:22:40.369Z,14.40
2023-05-02T03:25:09.038Z,14.30
2023-05-02T03:27:39.794Z,14.40
2023-05-02T03:30:10.932Z,14.40
2023-05-02T03:32:38.660Z,14.40
2023-05-02T03:35:07.991Z,14.50
2023-05-02T03:37:40.466Z,14.50
2023-05-02T03:40:08.693Z,14.50
2023-05-02T03:42:40.298Z,14.50
2023-05-02T03:45:18.759Z,14.50
2023-05-02T03:47:47.129Z,14.50
2023-05-02T03:50:15.097Z,14.40
2023-05-02T03:52:45.266Z,14.40
2023-05-02T03:55:14.415Z,14.40
2023-05-02T03:57:42.847Z,14.40
2023-05-02T04:00:13.466Z,14.40
2023-05-02T04:02:47.707Z,14.40
2023-05-02T04:05:19.219Z,14.40
2023-05-02T04:07:49.016Z,14.40
2023-05-02T04:10:18.166Z,14.40
2023-05-02T04:12:52.838Z,14.40
2023-05-02T04:15:21.679Z,14.40
2023-05-02T04:17:51.468Z,14.40
2023-05-02T04:20:20.458Z,14.40
2023-05-02T04:22:51.370Z,14.30
2023-05-02T04:25:19.084Z,14.30
2023-05-02T04:27:47.549Z,14.30
2023-05-02T04:30:18.651Z,14.50
2023-05-02T04:32:55.466Z,14.50
2023-05-02T04:35:24.094Z,14.50
2023-05-02T04:37:51.753Z,14.40
2023-05-02T04:40:19.982Z,14.50
2023-05-02T04:42:51.054Z,14.40
2023-05-02T04:45:22.179Z,14.50
2023-05-02T04:47:51.159Z,14.50
2023-05-02T04:50:28.684Z,14.50
2023-05-02T04:52:56.545Z,14.40
2023-05-02T04:55:24.274Z,14.60
2023-05-02T04:57:52.124Z,14.60
2023-05-02T05:00:20.184Z,14.60
2023-05-02T05:02:48.166Z,14.70
2023-05-02T05:05:16.929Z,14.80
2023-05-02T05:07:45.618Z,14.80
2023-05-02T05:10:14.301Z,14.90
2023-05-02T05:12:46.567Z,15.00
2023-05-02T05:15:16.165Z,15.10
2023-05-02T05:17:48.971Z,15.10
2023-05-02T05:20:16.865Z,15.00
2023-05-02T05:22:44.615Z,14.90
2023-05-02T05:25:14.148Z,14.80
2023-05-02T05:27:43.168Z,14.80
2023-05-02T05:30:12.478Z,14.80
2023-05-02T05:32:42.245Z,14.70
2023-05-02T05:35:10.532Z,14.70
2023-05-02T05:37:39.800Z,14.60
2023-05-02T05:40:11.035Z,14.60
2023-05-02T05:42:41.049Z,14.60
2023-05-02T05:45:15.087Z,14.60
2023-05-02T05:47:43.776Z,14.60
2023-05-02T05:50:11.671Z,14.60
2023-05-02T05:52:40.559Z,14.70
2023-05-02T05:55:08.885Z,14.70
2023-05-02T05:57:37.093Z,14.80
2023-05-02T06:00:07.621Z,14.90
2023-05-02T06:02:43.495Z,15.00
2023-05-02T06:05:18.984Z,15.10
2023-05-02T06:07:47.063Z,15.20
2023-05-02T06:10:14.933Z,15.10
2023-05-02T06:12:44.247Z,15.30
2023-05-02T06:15:14.351Z,15.30
2023-05-02T06:17:43.234Z,15.40
2023-05-02T06:20:11.271Z,15.50
2023-05-02T06:22:39.847Z,15.50
2023-05-02T06:25:09.018Z,15.60
2023-05-02T06:27:36.740Z,15.60
2023-05-02T06:30:04.988Z,15.60
2023-05-02T06:32:32.860Z,15.70
2023-05-02T06:35:01.136Z,15.70
2023-05-02T06:37:34.801Z,15.80
2023-05-02T06:40:03.817Z,15.80
2023-05-02T06:42:32.114Z,15.80
2023-05-02T06:44:59.897Z,15.80
2023-05-02T06:47:29.225Z,15.90
2023-05-02T06:49:57.486Z,15.90
2023-05-02T06:52:25.540Z,16.00
2023-05-02T06:54:53.557Z,16.00
2023-05-02T06:57:21.556Z,16.00
2023-05-02T06:59:49.668Z,16.00
2023-05-02T07:02:17.513Z,16.10
2023-05-02T07:04:45.662Z,16.10
2023-05-02T07:07:13.620Z,16.10
2023-05-02T07:09:41.538Z,16.10
2023-05-02T07:12:09.406Z,16.10
2023-05-02T07:14:37.260Z,16.10
2023-05-02T07:17:05.305Z,16.20
2023-05-02T07:19:33.569Z,16.20
2023-05-02T07:22:01.637Z,16.20
2023-05-02T07:24:29.708Z,16.20
2023-05-02T07:26:57.690Z,16.40
2023-05-02T07:29:26.273Z,16.40
2023-05-02T07:31:54.063Z,16.50
2023-05-02T07:34:22.235Z,16.50
2023-05-02T07:36:49.989Z,16.60
2023-05-02T07:39:17.914Z,16.60
2023-05-02T07:41:45.921Z,16.60
2023-05-02T07:44:13.681Z,16.60
2023-05-02T07:46:41.601Z,16.50
2023-05-02T07:49:09.470Z,16.60
2023-05-02T07:51:37.241Z,16.60
2023-05-02T07:54:19.041Z,16.60
2023-05-02T07:56:47.551Z,16.50
2023-05-02T07:59:15.358Z,16.50
2023-05-02T08:01:44.377Z,16.60
2023-05-02T08:04:13.408Z,16.60
2023-05-02T08:06:42.104Z,16.60
2023-05-02T08:09:10.343Z,16.70
2023-05-02T08:11:38.492Z,16.70
2023-05-02T08:14:06.325Z,16.70
2023-05-02T08:16:34.274Z,16.80
2023-05-02T08:19:02.108Z,16.70
2023-05-02T08:21:31.414Z,16.80
2023-05-02T08:24:00.066Z,16.80
2023-05-02T08:26:28.346Z,16.80
2023-05-02T08:28:56.037Z,16.90
2023-05-02T08:31:24.086Z,16.90
2023-05-02T08:33:52.695Z,16.90
2023-05-02T08:36:20.653Z,17.00
2023-05-02T08:38:49.838Z,17.20
2023-05-02T08:41:18.993Z,17.30
2023-05-02T08:43:47.233Z,17.20
2023-05-02T08:46:17.053Z,17.40
2023-05-02T08:48:48.298Z,17.50
2023-05-02T08:53:46.049Z,17.50
2023-05-02T08:56:14.240Z,17.50
2023-05-02T08:58:42.192Z,17.60
2023-05-02T09:01:22.965Z,17.50
2023-05-02T09:03:52.594Z,17.60
2023-05-02T09:06:22.877Z,17.60
2023-05-02T09:08:53.333Z,17.60
2023-05-02T09:11:24.283Z,17.70
2023-05-02T09:13:52.861Z,17.70
2023-05-02T09:16:25.978Z,17.80
2023-05-02T09:18:56.027Z,17.70
2023-05-02T09:21:35.858Z,17.70
2023-05-02T09:24:21.433Z,17.60
2023-05-02T09:27:03.803Z,17.60
2023-05-02T09:29:36.480Z,17.50
2023-05-02T09:32:07.780Z,17.70
2023-05-02T09:34:37.586Z,17.60
2023-05-02T09:37:06.501Z,17.60
2023-05-02T09:39:34.192Z,17.70
2023-05-02T09:42:03.688Z,17.60
2023-05-02T09:44:38.469Z,17.50
2023-05-02T09:47:08.855Z,17.60
2023-05-02T09:49:44.949Z,17.50
2023-05-02T09:52:15.464Z,17.60
2023-05-02T09:54:44.041Z,17.50
2023-05-02T09:57:12.287Z,17.60
2023-05-02T09:59:41.082Z,17.60
2023-05-02T10:02:11.582Z,17.50
2023-05-02T10:04:40.595Z,17.60
2023-05-02T10:07:10.941Z,17.60
2023-05-02T10:09:44.588Z,17.70
2023-05-02T10:12:16.916Z,17.60
2023-05-02T10:14:53.343Z,17.60
2023-05-02T10:17:45.146Z,17.60
2023-05-02T10:20:19.313Z,17.50
2023-05-02T10:22:49.593Z,17.60
2023-05-02T10:25:17.890Z,17.60
2023-05-02T10:27:46.589Z,17.60
2023-05-02T10:30:15.237Z,17.60
2023-05-02T10:32:45.053Z,17.70
2023-05-02T10:35:13.499Z,17.70
2023-05-02T10:37:41.913Z,17.70
2023-05-02T10:40:13.702Z,17.90
2023-05-02T10:42:46.084Z,17.90
2023-05-02T10:45:36.024Z,17.80
2023-05-02T10:48:22.380Z,17.80
2023-05-02T10:50:58.736Z,17.80
2023-05-02T10:53:40.548Z,17.90
2023-05-02T10:56:22.355Z,17.90
2023-05-02T10:58:51.611Z,17.90
2023-05-02T11:01:26.642Z,17.90
2023-05-02T11:04:05.247Z,17.90
2023-05-02T11:06:38.314Z,17.80
2023-05-02T11:09:21.214Z,17.80
2023-05-02T11:11:50.942Z,17.90
2023-05-02T11:14:35.972Z,18.00
2023-05-02T11:17:09.627Z,18.00
2023-05-02T11:19:46.608Z,18.10
2023-05-02T11:22:28.388Z,18.30
2023-05-02T11:24:56.223Z,18.30
2023-05-02T11:27:32.377Z,18.40
2023-05-02T11:30:00.985Z,18.30
2023-05-02T11:32:48.795Z,18.20
2023-05-02T11:35:20.817Z,18.20
2023-05-02T11:38:19.250Z,18.10
2023-05-02T11:40:57.642Z,18.10
2023-05-02T11:43:29.975Z,18.10
2023-05-02T11:46:00.779Z,18.30
2023-05-02T11:48:28.737Z,18.30
2023-05-02T11:51:05.393Z,18.30
2023-05-02T11:53:34.118Z,18.30
2023-05-02T11:56:04.543Z,18.30
2023-05-02T11:58:34.229Z,18.30
2023-05-02T12:01:16.326Z,18.30
2023-05-02T12:03:44.467Z,18.30
2023-05-02T12:06:14.891Z,18.30
2023-05-02T12:08:44.382Z,18.40
2023-05-02T12:11:16.668Z,18.50
2023-05-02T12:13:50.070Z,18.50
2023-05-02T12:16:19.093Z,18.50
2023-05-02T12:18:48.429Z,18.40
2023-05-02T12:21:17.233Z,18.50
2023-05-02T12:23:45.623Z,18.40
2023-05-02T12:26:20.299Z,18.50
2023-05-02T12:28:55.159Z,18.60
2023-05-02T12:31:23.954Z,18.60
2023-05-02T12:33:55.398Z,18.60
2023-05-02T12:36:23.930Z,18.60
2023-05-02T12:38:58.677Z,18.70
2023-05-02T12:41:34.559Z,18.80
2023-05-02T12:44:02.716Z,18.90
2023-05-02T12:46:32.078Z,18.80
2023-05-02T12:49:12.357Z,18.70
2023-05-02T12:51:41.621Z,18.70
2023-05-02T12:54:20.239Z,18.70
2023-05-02T12:56:49.190Z,18.80
2023-05-02T12:59:31.188Z,18.80
2023-05-02T13:02:00.050Z,18.80
2023-05-02T13:04:41.661Z,18.70
2023-05-02T13:07:09.429Z,18.70
2023-05-02T13:09:37.737Z,18.70
2023-05-02T13:12:06.470Z,18.70
2023-05-02T13:14:34.652Z,18.70
2023-05-02T13:17:02.600Z,18.80
2023-05-02T13:19:31.830Z,18.80
2023-05-02T13:21:59.930Z,18.90
2023-05-02T13:24:28.184Z,18.80
2023-05-02T13:26:56.278Z,18.80
2023-05-02T13:29:24.070Z,18.90
2023-05-02T13:31:52.014Z,18.90
2023-05-02T13:34:19.959Z,18.90
2023-05-02T13:36:47.808Z,18.90
2023-05-02T13:39:15.726Z,18.90
2023-05-02T13:41:43.463Z,19.00
2023-05-02T13:44:11.546Z,19.00
2023-05-02T13:46:39.619Z,18.90
2023-05-02T13:49:07.537Z,18.90
2023-05-02T13:51:35.540Z,19.00
2023-05-02T13:54:03.523Z,19.00
2023-05-02T13:56:31.319Z,19.10
2023-05-02T13:58:59.260Z,19.10
2023-05-02T14:01:28.324Z,19.00
2023-05-02T14:03:56.504Z,18.90
2023-05-02T14:06:24.968Z,18.80
2023-05-02T14:08:52.821Z,18.80
2023-05-02T14:11:20.483Z,18.60
2023-05-02T14:13:48.171Z,18.70
2023-05-02T14:16:15.997Z,18.80
2023-05-02T14:18:45.741Z,18.80
2023-05-02T14:21:13.520Z,18.90
2023-05-02T14:23:41.144Z,18.90
2023-05-02T14:26:09.182Z,18.90
2023-05-02T14:28:38.431Z,18.90
2023-05-02T14:31:07.688Z,18.90
2023-05-02T14:33:35.672Z,19.00
2023-05-02T14:36:03.875Z,19.00
2023-05-02T14:38:31.588Z,19.10
2023-05-02T14:40:59.421Z,19.10
2023-05-02T14:43:27.693Z,19.10
2023-05-02T14:45:57.280Z,19.10
2023-05-02T14:48:25.177Z,19.00
2023-05-02T14:50:53.967Z,19.00
2023-05-02T14:53:22.034Z,19.00
2023-05-02T14:55:49.869Z,18.90
2023-05-02T14:58:20.785Z,18.90
2023-05-02T15:00:48.953Z,18.90
2023-05-02T15:03:16.946Z,18.90
2023-05-02T15:05:45.018Z,18.90
2023-05-02T15:08:12.738Z,18.90
2023-05-02T15:10:40.420Z,18.90
2023-05-02T15:13:08.937Z,18.70
2023-05-02T15:15:37.694Z,18.70
2023-05-02T15:18:05.525Z,18.70
2023-05-02T15:20:33.270Z,18.70
2023-05-02T15:23:03.732Z,18.70
2023-05-02T15:25:31.831Z,18.70
2023-05-02T15:27:59.805Z,18.60
2023-05-02T15:30:27.504Z,18.50
2023-05-02T15:32:55.607Z,18.40
2023-05-02T15:35:23.542Z,18.30
2023-05-02T15:37:51.389Z,18.30
2023-05-02T15:40:19.572Z,18.30
2023-05-02T15:42:47.517Z,18.30
2023-05-02T15:45:15.893Z,18.20
2023-05-02T15:47:43.692Z,18.20
2023-05-02T15:50:12.144Z,18.20
2023-05-02T15:52:39.980Z,18.20
2023-05-02T15:55:07.824Z,18.10
2023-05-02T15:57:35.588Z,18.00
2023-05-02T16:00:03.673Z,18.00
2023-05-02T16:02:31.775Z,18.00
2023-05-02T16:04:59.495Z,18.00
2023-05-02T16:07:27.416Z,17.90
2023-05-02T16:09:55.306Z,17.90
2023-05-02T16:12:26.793Z,17.90
2023-05-02T16:14:54.552Z,17.80
2023-05-02T16:17:22.481Z,17.80
2023-05-02T16:19:50.251Z,17.70
2023-05-02T16:22:18.320Z,17.70
2023-05-02T16:24:46.162Z,17.70
2023-05-02T16:27:13.957Z,17.60
2023-05-02T16:29:41.874Z,17.60
2023-05-02T16:32:09.696Z,17.60
2023-05-02T16:34:37.941Z,17.60
2023-05-02T16:37:06.037Z,17.50
2023-05-02T16:39:34.484Z,17.50
2023-05-02T16:42:02.328Z,17.50
2023-05-02T16:44:30.774Z,17.60
2023-05-02T16:46:58.545Z,17.50
2023-05-02T16:49:26.380Z,17.50
2023-05-02T16:51:55.079Z,17.60
2023-05-02T16:54:23.161Z,17.60
2023-05-02T16:56:51.477Z,17.60
2023-05-02T16:59:19.525Z,17.60
2023-05-02T17:01:47.301Z,17.60
2023-05-02T17:04:16.375Z,17.60
2023-05-02T17:06:44.203Z,17.50
2023-05-02T17:09:12.658Z,17.50
2023-05-02T17:11:40.652Z,17.50
2023-05-02T17:14:09.121Z,17.40
2023-05-02T17:16:36.838Z,17.30
2023-05-02T17:19:04.633Z,17.40
2023-05-02T17:21:33.032Z,17.30
2023-05-02T17:24:00.816Z,17.30
2023-05-02T17:26:28.569Z,17.30
2023-05-02T17:28:56.377Z,17.40
2023-05-02T17:31:24.652Z,17.30
2023-05-02T17:33:52.479Z,17.20
2023-05-02T17:36:20.340Z,17.20
2023-05-02T17:38:48.114Z,17.20
2023-05-02T17:41:16.406Z,17.20
2023-05-02T17:43:44.201Z,17.20
2023-05-02T17:46:12.147Z,17.20
2023-05-02T17:48:43.654Z,17.30
2023-05-02T17:51:15.610Z,17.20
2023-05-02T17:53:43.681Z,17.10
2023-05-02T17:56:12.980Z,17.10
2023-05-02T17:58:40.932Z,16.90
2023-05-02T18:01:10.255Z,16.90
2023-05-02T18:03:38.756Z,16.90
2023-05-02T18:06:07.175Z,16.80
2023-05-02T18:08:35.202Z,16.80
2023-05-02T18:11:03.662Z,16.70
2023-05-02T18:13:31.358Z,16.60
2023-05-02T18:16:01.600Z,16.60
2023-05-02T18:18:29.467Z,16.60
2023-05-02T18:20:57.828Z,16.40
2023-05-02T18:23:25.654Z,16.40
2023-05-02T18:25:53.404Z,16.50
2023-05-02T18:28:21.426Z,16.40
2023-05-02T18:30:49.140Z,16.40
2023-05-02T18:33:17.246Z,16.40
2023-05-02T18:35:49.190Z,16.30
2023-05-02T18:38:17.576Z,16.20
2023-05-02T18:40:45.627Z,16.20
2023-05-02T18:43:13.748Z,16.20
2023-05-02T18:45:41.834Z,16.00
2023-05-02T18:48:09.878Z,16.00
2023-05-02T18:50:37.623Z,16.00
2023-05-02T18:53:05.449Z,16.10
2023-05-02T18:55:35.143Z,16.10
2023-05-02T18:58:03.027Z,16.00
2023-05-02T19:00:31.808Z,16.00
2023-05-02T19:02:59.651Z,15.90
2023-05-02T19:05:27.756Z,15.90
2023-05-02T19:07:56.213Z,15.90
2023-05-02T19:10:24.250Z,15.70
2023-05-02T19:12:52.048Z,15.80
2023-05-02T19:15:19.928Z,15.80
2023-05-02T19:17:48.210Z,15.80
2023-05-02T19:20:16.012Z,15.90
2023-05-02T19:22:43.984Z,16.00
2023-05-02T19:25:13.079Z,16.00
2023-05-02T19:27:42.248Z,16.00
2023-05-02T19:30:10.424Z,16.00
2023-05-02T19:32:38.427Z,16.00
2023-05-02T19:35:07.263Z,16.00
2023-05-02T19:37:35.146Z,16.00
2023-05-02T19:40:03.000Z,16.00
2023-05-02T19:42:30.812Z,16.00
2023-05-02T19:44:58.634Z,16.10
2023-05-02T19:47:27.688Z,16.00
2023-05-02T19:49:55.452Z,16.10
2023-05-02T19:52:23.166Z,16.00
2023-05-02T19:54:54.118Z,16.00
2023-05-02T19:57:21.801Z,16.00
2023-05-02T19:59:49.782Z,15.90
2023-05-02T20:02:17.781Z,15.90
2023-05-02T20:04:45.792Z,15.90
2023-05-02T20:07:13.868Z,15.90
2023-05-02T20:09:41.671Z,15.90
2023-05-02T20:12:09.594Z,15.90
2023-05-02T20:14:37.763Z,15.90
2023-05-02T20:17:05.958Z,15.90
2023-05-02T20:19:34.102Z,15.90
2023-05-02T20:22:02.007Z,15.80
2023-05-02T20:24:29.951Z,15.80
2023-05-02T20:26:57.921Z,15.80
2023-05-02T20:29:25.964Z,15.80
2023-05-02T20:31:55.184Z,15.80
2023-05-02T20:34:24.184Z,15.80
2023-05-02T20:36:52.904Z,15.90
2023-05-02T20:39:22.003Z,15.90
2023-05-02T20:41:49.858Z,15.90
2023-05-02T20:44:22.744Z,15.90
2023-05-02T20:46:51.688Z,15.80
2023-05-02T20:49:19.858Z,15.90
2023-05-02T20:51:47.911Z,15.80
2023-05-02T20:54:16.025Z,15.80
2023-05-02T20:56:43.858Z,15.80
2023-05-02T20:59:11.834Z,15.70
2023-05-02T21:01:39.703Z,15.70
2023-05-02T21:04:07.492Z,15.70
2023-05-02T21:06:35.467Z,15.60
2023-05-02T21:09:03.785Z,15.80
2023-05-02T21:11:31.612Z,15.60
2023-05-02T21:13:59.453Z,15.50
2023-05-02T21:16:27.327Z,15.50
2023-05-02T21:18:55.255Z,15.50
2023-05-02T21:21:23.404Z,15.50
2023-05-02T21:23:51.172Z,15.50
2023-05-02T21:26:19.040Z,15.40
2023-05-02T21:28:46.810Z,15.50
2023-05-02T21:31:14.631Z,15.50
2023-05-02T21:33:42.340Z,15.50
2023-05-02T21:36:10.581Z,15.50
2023-05-02T21:38:38.285Z,15.50
2023-05-02T21:41:06.370Z,15.50
2023-05-02T21:43:38.502Z,15.50
2023-05-02T21:46:06.621Z,15.50
2023-05-02T21:48:34.432Z,15.60
2023-05-02T21:51:09.740Z,15.60
2023-05-02T21:53:38.213Z,15.50
2023-05-02T21:56:10.149Z,15.50
2023-05-02T21:58:37.995Z,15.50
2023-05-02T22:01:05.747Z,15.60
2023-05-02T22:03:34.794Z,15.40
2023-05-02T22:06:06.433Z,15.40
2023-05-02T22:08:34.698Z,15.30
2023-05-02T22:11:09.642Z,15.30
2023-05-02T22:13:37.567Z,15.20
2023-05-02T22:16:05.520Z,15.30
2023-05-02T22:18:33.445Z,15.30
2023-05-02T22:21:02.330Z,15.20
2023-05-02T22:23:31.214Z,15.30
2023-05-02T22:25:59.092Z,15.30
2023-05-02T22:28:27.165Z,15.30
2023-05-02T22:30:54.992Z,15.30
2023-05-02T22:33:22.800Z,15.20
2023-05-02T22:35:50.528Z,15.10
2023-05-02T22:38:20.127Z,15.20
2023-05-02T22:40:47.782Z,15.30
2023-05-02T22:43:15.876Z,15.40
2023-05-02T22:45:43.513Z,15.40
2023-05-02T22:48:12.131Z,15.40
2023-05-02T22:50:40.318Z,15.40
2023-05-02T22:53:09.587Z,15.30
2023-05-02T22:55:38.630Z,15.30
2023-05-02T22:58:06.390Z,15.20
2023-05-02T23:00:34.377Z,15.10
2023-05-02T23:03:02.758Z,15.10
2023-05-02T23:05:30.653Z,15.20
2023-05-02T23:07:58.416Z,15.20
2023-05-02T23:10:26.185Z,15.20
2023-05-02T23:12:54.190Z,15.20
2023-05-02T23:15:22.030Z,15.20
2023-05-02T23:17:49.881Z,15.20
2023-05-02T23:20:19.735Z,15.10
2023-05-02T23:22:47.528Z,15.20
2023-05-02T23:25:15.665Z,15.20
2023-05-02T23:27:43.450Z,15.10
2023-05-02T23:30:11.863Z,15.10
2023-05-02T23:32:40.294Z,15.20
2023-05-02T23:35:08.617Z,15.20
2023-05-02T23:37:36.318Z,15.20
2023-05-02T23:40:05.029Z,15.10
2023-05-02T23:42:34.475Z,15.00
2023-05-02T23:45:02.289Z,14.90
2023-05-02T23:47:30.012Z,15.00
2023-05-02T23:49:57.885Z,15.00
2023-05-02T23:52:25.727Z,15.00
2023-05-02T23:54:53.831Z,15.10
2023-05-02T23:57:21.494Z,15.00
2023-05-02T23:59:49.280Z,14.90
